Time;durP1;ratioP1;P1;durP2;ratioP2;P2;SDS_P1;SDS_P2;PMS_P1;PMS_P2;Temp;Humidity;BMP_temperature;BMP_pressure;BME280_temperature;BME280_humidity;BME280_pressure;Samples;Min_cycle;Max_cycle;Signal;HPM_P1;HPM_P2
2023/05/29 00:01:24;;;;;;;28.23;12.00;;;14.10;99.90;;;;;;5117477;28;20020;-65
2023/05/29 00:03:50;;;;;;;25.45;12.18;;;14.10;99.90;;;;;;5117375;28;20437;-65
2023/05/29 00:06:16;;;;;;;25.67;10.35;;;14.00;99.90;;;;;;5117619;28;20020;-65
2023/05/29 00:08:42;;;;;;;23.50;9.57;;;14.10;99.90;;;;;;5117541;28;20015;-65
2023/05/29 00:11:08;;;;;;;18.95;9.20;;;14.00;99.90;;;;;;5117330;28;20030;-65
2023/05/29 00:13:34;;;;;;;18.88;10.50;;;14.00;99.90;;;;;;5117331;28;20040;-65
2023/05/29 00:16:00;;;;;;;19.83;10.07;;;13.80;99.90;;;;;;5117456;28;20039;-65
2023/05/29 00:18:27;;;;;;;13.50;8.50;;;13.90;99.90;;;;;;5117357;28;20473;-65
2023/05/29 00:20:53;;;;;;;31.98;14.75;;;13.80;99.90;;;;;;5117372;28;20028;-65
2023/05/29 00:23:19;;;;;;;42.50;20.35;;;13.70;99.90;;;;;;5116911;28;20467;-65
2023/05/29 00:25:45;;;;;;;31.15;13.63;;;13.60;99.90;;;;;;5117287;28;20030;-65
2023/05/29 00:28:12;;;;;;;29.73;14.88;;;13.70;99.90;;;;;;5117215;28;20023;-65
2023/05/29 00:30:41;;;;;;;36.05;16.20;;;13.70;99.90;;;;;;5117292;28;20019;-65
2023/05/29 00:33:08;;;;;;;43.15;18.55;;;13.70;99.90;;;;;;5116932;28;20043;-65
2023/05/29 00:35:34;;;;;;;30.38;14.98;;;13.70;99.90;;;;;;5098734;28;20123;-65
2023/05/29 00:38:00;;;;;;;30.20;14.65;;;13.60;99.90;;;;;;5098693;28;20043;-65
2023/05/29 00:40:26;;;;;;;27.55;14.48;;;13.50;99.90;;;;;;5098666;28;20388;-65
2023/05/29 00:42:52;;;;;;;44.63;22.27;;;13.40;99.90;;;;;;5116978;28;20053;-65
2023/05/29 00:45:18;;;;;;;26.52;15.23;;;13.40;99.90;;;;;;5116902;28;20413;-64
2023/05/29 00:47:45;;;;;;;23.08;13.98;;;13.40;99.90;;;;;;5117039;28;20350;-65
2023/05/29 00:50:13;;;;;;;27.42;15.45;;;13.40;99.90;;;;;;5116859;28;20084;-65
2023/05/29 00:52:41;;;;;;;26.27;13.38;;;13.40;99.90;;;;;;5098354;28;20027;-65
2023/05/29 00:55:08;;;;;;;35.60;15.05;;;13.40;99.90;;;;;;5116749;28;20385;-65
2023/05/29 00:57:36;;;;;;;26.20;13.48;;;13.30;99.90;;;;;;5116598;28;20501;-65
2023/05/29 01:00:13;;;;;;;25.35;12.20;;;13.30;99.90;;;;;;5098205;28;20067;-65
2023/05/29 01:02:44;;;;;;;;;;;13.30;99.90;;;;;;5098688;28;20031;-65
2023/05/29 01:05:14;;;;;;;24.42;11.35;;;13.30;99.90;;;;;;5116407;28;20306;-65
2023/05/29 01:07:42;;;;;;;24.03;12.17;;;13.20;99.90;;;;;;5116534;28;20027;-65
2023/05/29 01:10:09;;;;;;;20.40;10.93;;;13.20;99.90;;;;;;5116201;28;20074;-65
2023/05/29 01:12:41;;;;;;;21.73;10.85;;;13.10;99.90;;;;;;5116505;28;20034;-65
2023/05/29 01:15:30;;;;;;;19.50;10.77;;;13.10;99.90;;;;;;5116291;28;20057;-65
2023/05/29 01:18:22;;;;;;;18.50;11.57;;;13.10;99.90;;;;;;5116317;28;20030;-64
2023/05/29 01:21:11;;;;;;;19.95;11.00;;;13.10;99.90;;;;;;5116194;28;20309;-64
2023/05/29 01:23:57;;;;;;;19.48;11.25;;;13.10;99.90;;;;;;5115963;28;20027;-64
2023/05/29 01:26:47;;;;;;;23.77;12.10;;;13.00;99.90;;;;;;5116072;28;20054;-64
2023/05/29 01:29:17;;;;;;;20.08;11.45;;;13.00;99.90;;;;;;5115808;28;20024;-65
2023/05/29 01:31:45;;;;;;;22.75;12.15;;;12.90;99.90;;;;;;5097721;28;20028;-65
2023/05/29 01:34:11;;;;;;;22.77;11.27;;;12.90;99.90;;;;;;5115638;28;20064;-64
2023/05/29 01:36:37;;;;;;;18.45;10.35;;;12.90;99.90;;;;;;5115808;28;20435;-65
2023/05/29 01:39:04;;;;;;;20.40;10.85;;;13.00;99.90;;;;;;5097471;28;20035;-65
2023/05/29 01:41:32;;;;;;;16.35;11.35;;;13.00;99.90;;;;;;5097523;28;20023;-65
2023/05/29 01:43:59;;;;;;;15.25;9.98;;;13.00;99.90;;;;;;5115511;28;20060;-65
2023/05/29 01:46:25;;;;;;;17.70;10.82;;;13.00;99.90;;;;;;5115657;28;20500;-65
2023/05/29 01:48:52;;;;;;;54.25;12.40;;;13.10;99.90;;;;;;5097410;28;20035;-65
2023/05/29 01:51:18;;;;;;;29.75;11.43;;;13.20;99.90;;;;;;5115604;28;20038;-65
2023/05/29 01:53:46;;;;;;;25.30;12.80;;;13.00;99.90;;;;;;5097321;28;20118;-65
2023/05/29 01:56:12;;;;;;;23.77;11.80;;;13.00;99.90;;;;;;5097291;28;20027;-65
2023/05/29 01:58:40;;;;;;;24.48;12.07;;;12.80;99.90;;;;;;5097196;28;20049;-65
2023/05/29 02:01:07;;;;;;;21.08;11.95;;;12.80;99.90;;;;;;5097149;28;20122;-65
2023/05/29 02:03:33;;;;;;;20.27;12.73;;;12.80;99.90;;;;;;5115164;28;20106;-65
2023/05/29 02:06:00;;;;;;;16.00;10.85;;;12.90;99.90;;;;;;5115314;28;20031;-65
2023/05/29 02:08:27;;;;;;;14.60;9.82;;;12.90;99.90;;;;;;5096996;28;20036;-65
2023/05/29 02:10:53;;;;;;;19.13;9.52;;;13.00;99.90;;;;;;5096370;28;20024;-65
2023/05/29 02:13:20;;;;;;;14.98;9.27;;;12.90;99.90;;;;;;5096890;28;20035;-65
2023/05/29 02:15:46;;;;;;;15.05;8.82;;;12.90;99.90;;;;;;5096950;28;20481;-65
2023/05/29 02:18:14;;;;;;;15.52;8.98;;;12.80;99.90;;;;;;5096798;28;20381;-65
2023/05/29 02:20:41;;;;;;;19.85;10.20;;;12.80;99.90;;;;;;5115139;28;20104;-65
2023/05/29 02:23:10;;;;;;;17.63;9.40;;;12.80;99.90;;;;;;5096807;28;20028;-64
2023/05/29 02:25:36;;;;;;;18.52;11.48;;;12.80;99.90;;;;;;5114931;28;20028;-64
2023/05/29 02:28:03;;;;;;;34.70;12.90;;;12.80;99.90;;;;;;5115069;28;20410;-65
2023/05/29 02:30:30;;;;;;;45.35;15.02;;;12.80;99.90;;;;;;5096787;28;20031;-65
2023/05/29 02:32:55;;;;;;;37.13;15.45;;;12.80;99.90;;;;;;5096418;28;20048;-65
2023/05/29 02:35:22;;;;;;;27.20;14.18;;;12.80;99.90;;;;;;5114924;28;20111;-65
2023/05/29 02:37:52;;;;;;;29.17;15.15;;;12.80;99.90;;;;;;5114984;28;20020;-65
2023/05/29 02:40:19;;;;;;;24.38;14.90;;;12.90;99.90;;;;;;5096757;28;20061;-65
2023/05/29 02:42:46;;;;;;;22.48;13.05;;;13.10;99.90;;;;;;5096737;28;20032;-65
2023/05/29 02:45:12;;;;;;;25.48;12.88;;;13.10;99.90;;;;;;5096651;28;20032;-65
2023/05/29 02:47:38;;;;;;;18.42;11.82;;;13.00;99.90;;;;;;5096644;28;20028;-65
2023/05/29 02:50:05;;;;;;;24.15;12.75;;;13.10;99.90;;;;;;5114916;28;20451;-65
2023/05/29 02:52:36;;;;;;;19.30;11.30;;;13.10;99.90;;;;;;5114804;28;20024;-65
2023/05/29 02:55:03;;;;;;;23.73;11.38;;;13.10;99.90;;;;;;5096571;28;20135;-65
2023/05/29 02:57:30;;;;;;;34.28;13.52;;;13.00;99.90;;;;;;5114729;28;20028;-65
2023/05/29 02:59:56;;;;;;;28.75;13.55;;;13.10;99.90;;;;;;5114811;28;20380;-65
2023/05/29 03:02:22;;;;;;;32.72;14.80;;;13.10;99.90;;;;;;5096545;28;20032;-65
2023/05/29 03:04:50;;;;;;;42.08;14.80;;;13.20;99.90;;;;;;5114721;28;20027;-65
2023/05/29 03:07:16;;;;;;;28.17;13.98;;;13.10;99.90;;;;;;5114700;28;20042;-65
2023/05/29 03:09:42;;;;;;;22.67;13.38;;;13.10;99.90;;;;;;5114458;28;20472;-65
2023/05/29 03:12:09;;;;;;;22.48;14.18;;;13.10;99.90;;;;;;5096255;28;20739;-65
2023/05/29 03:14:36;;;;;;;19.88;12.63;;;13.10;99.90;;;;;;5096472;28;20055;-65
2023/05/29 03:17:09;;;;;;;;;;;13.00;99.90;;;;;;5096809;28;20039;-65
2023/05/29 03:19:35;;;;;;;25.10;13.10;;;13.00;99.90;;;;;;5114639;28;19911;-65
2023/05/29 03:22:01;;;;;;;20.50;12.32;;;13.00;99.90;;;;;;5115353;28;20024;-65
2023/05/29 03:24:29;;;;;;;35.03;14.02;;;13.10;99.90;;;;;;5099895;28;20236;-65
2023/05/29 03:26:55;;;;;;;24.98;13.27;;;13.10;99.90;;;;;;5118374;28;20028;-65
2023/05/29 03:29:22;;;;;;;24.65;13.07;;;13.20;99.90;;;;;;5100181;28;20047;-65
2023/05/29 03:31:50;;;;;;;25.15;14.77;;;13.10;99.90;;;;;;5100011;28;20027;-65
2023/05/29 03:34:22;;;;;;;24.10;13.25;;;13.20;99.90;;;;;;5096346;28;20121;-65
2023/05/29 03:36:56;;;;;;;21.52;13.20;;;13.30;99.90;;;;;;5097785;28;20042;-65
2023/05/29 03:39:24;;;;;;;24.90;12.07;;;13.20;99.90;;;;;;5096444;28;20032;-65
2023/05/29 03:41:50;;;;;;;18.92;11.65;;;13.20;99.90;;;;;;5097662;28;20039;-64
2023/05/29 03:44:17;;;;;;;27.70;14.18;;;13.20;99.90;;;;;;5096363;28;20031;-65
2023/05/29 03:46:43;;;;;;;24.55;14.18;;;13.30;99.90;;;;;;5096232;28;20024;-64
2023/05/29 03:49:10;;;;;;;28.85;15.07;;;13.30;99.90;;;;;;5096309;28;20039;-64
2023/05/29 03:51:36;;;;;;;27.77;15.00;;;13.30;99.90;;;;;;5096128;28;20039;-64
2023/05/29 03:54:03;;;;;;;25.45;15.05;;;13.30;99.90;;;;;;5096182;28;20114;-64
2023/05/29 03:56:30;;;;;;;25.10;14.48;;;13.40;99.90;;;;;;5096206;28;20385;-64
2023/05/29 03:58:56;;;;;;;26.65;14.20;;;13.50;99.90;;;;;;5095971;28;20504;-64
2023/05/29 04:01:22;;;;;;;29.17;15.02;;;13.40;99.90;;;;;;5095965;28;20036;-65
2023/05/29 04:03:48;;;;;;;27.27;15.65;;;13.50;99.90;;;;;;5095915;28;20550;-64
2023/05/29 04:06:14;;;;;;;31.45;15.93;;;13.40;99.90;;;;;;5095722;28;20028;-65
2023/05/29 04:08:40;;;;;;;30.70;16.20;;;13.50;99.90;;;;;;5095787;28;20031;-65
2023/05/29 04:11:07;;;;;;;25.50;16.08;;;13.50;99.90;;;;;;5097154;28;20028;-64
2023/05/29 04:13:33;;;;;;;37.65;18.17;;;13.60;99.90;;;;;;5097075;28;20034;-65
2023/05/29 04:15:59;;;;;;;29.70;17.63;;;13.80;99.90;;;;;;5097120;28;20028;-64
2023/05/29 04:18:25;;;;;;;34.28;17.02;;;13.80;99.90;;;;;;5095761;28;20036;-65
2023/05/29 04:20:53;;;;;;;27.02;17.05;;;13.70;99.90;;;;;;5095548;28;20036;-65
2023/05/29 04:23:20;;;;;;;35.83;19.00;;;13.80;99.90;;;;;;5095497;28;20055;-65
2023/05/29 04:25:47;;;;;;;78.00;22.88;;;13.80;99.90;;;;;;5095604;28;20056;-65
2023/05/29 04:28:17;;;;;;;84.80;25.60;;;13.90;99.90;;;;;;5095408;28;20032;-65
2023/05/29 04:30:44;;;;;;;92.15;29.23;;;13.90;99.90;;;;;;5095384;28;20531;-65
2023/05/29 04:33:12;;;;;;;97.57;28.70;;;13.90;99.90;;;;;;5094937;28;20469;-65
2023/05/29 04:35:44;;;;;;;109.13;29.50;;;13.90;99.90;;;;;;5095297;28;20081;-65
2023/05/29 04:38:11;;;;;;;88.05;27.67;;;13.80;99.90;;;;;;5095301;28;20024;-65
2023/05/29 04:40:37;;;;;;;81.13;29.33;;;13.80;99.90;;;;;;5095416;28;20035;-65
2023/05/29 04:43:05;;;;;;;85.93;32.20;;;13.90;99.90;;;;;;5096233;28;20469;-65
2023/05/29 04:45:45;;;;;;;83.30;31.73;;;14.10;99.90;;;;;;5095096;28;20028;-65
2023/05/29 04:48:11;;;;;;;83.40;32.72;;;14.20;99.90;;;;;;5095012;28;20032;-65
2023/05/29 04:50:38;;;;;;;70.03;31.05;;;14.20;99.90;;;;;;5094986;28;20074;-65
2023/05/29 04:53:05;;;;;;;78.00;31.17;;;14.40;99.90;;;;;;5095018;28;20028;-65
2023/05/29 04:55:32;;;;;;;85.03;32.97;;;14.40;99.90;;;;;;5096401;28;20047;-65
2023/05/29 04:57:58;;;;;;;67.43;26.30;;;14.50;99.90;;;;;;5094938;28;20502;-65
2023/05/29 05:00:26;;;;;;;62.20;24.85;;;14.40;99.90;;;;;;5094774;28;20037;-65
2023/05/29 05:02:52;;;;;;;47.35;24.63;;;14.50;99.90;;;;;;5094742;28;20024;-65
2023/05/29 05:05:18;;;;;;;42.05;22.42;;;14.60;99.90;;;;;;5094911;28;20077;-65
2023/05/29 05:07:44;;;;;;;48.83;23.25;;;14.70;99.90;;;;;;5096009;28;20028;-65
2023/05/29 05:10:12;;;;;;;45.08;23.45;;;14.60;99.90;;;;;;5094366;28;20020;-65
2023/05/29 05:12:38;;;;;;;63.72;24.45;;;14.70;99.90;;;;;;5094741;28;20028;-65
2023/05/29 05:15:05;;;;;;;48.45;24.98;;;14.80;99.90;;;;;;5094399;28;20028;-66
2023/05/29 05:17:33;;;;;;;49.00;24.83;;;14.70;99.90;;;;;;5095023;28;20046;-66
2023/05/29 05:19:59;;;;;;;67.47;29.17;;;14.60;99.90;;;;;;5095316;28;20489;-65
2023/05/29 05:22:26;;;;;;;95.28;38.13;;;14.60;99.90;;;;;;5094489;28;20489;-65
2023/05/29 05:24:54;;;;;;;104.95;42.78;;;14.60;99.90;;;;;;5093886;28;20088;-65
2023/05/29 05:27:23;;;;;;;113.82;49.88;;;14.50;99.90;;;;;;5091663;28;20386;-65
2023/05/29 05:29:49;;;;;;;102.55;46.22;;;14.40;99.90;;;;;;5093932;28;20062;-65
2023/05/29 05:32:16;;;;;;;106.78;46.70;;;14.40;99.90;;;;;;5094099;28;20035;-65
2023/05/29 05:34:42;;;;;;;104.75;46.35;;;14.30;99.90;;;;;;5093599;28;20075;-65
2023/05/29 05:37:09;;;;;;;92.32;43.38;;;14.50;99.90;;;;;;5094114;28;20032;-65
2023/05/29 05:39:37;;;;;;;86.70;40.60;;;14.50;99.90;;;;;;5094068;28;20043;-65
2023/05/29 05:42:03;;;;;;;92.80;45.15;;;14.60;99.90;;;;;;5094688;28;20024;-65
2023/05/29 05:44:52;;;;;;;84.75;41.42;;;14.60;99.90;;;;;;5092915;28;20039;-65
2023/05/29 05:47:18;;;;;;;84.45;42.08;;;14.80;99.90;;;;;;5093770;28;20719;-65
2023/05/29 05:49:44;;;;;;;77.47;37.33;;;14.90;99.90;;;;;;5093681;28;20016;-65
2023/05/29 05:52:11;;;;;;;87.88;41.28;;;14.70;99.90;;;;;;5093865;28;20031;-65
2023/05/29 05:54:38;;;;;;;85.93;41.38;;;14.70;99.90;;;;;;5093569;28;20078;-65
2023/05/29 05:57:06;;;;;;;94.65;44.40;;;14.80;99.90;;;;;;5092997;28;20462;-65
2023/05/29 05:59:33;;;;;;;99.82;47.38;;;15.00;99.90;;;;;;5092816;28;20039;-65
2023/05/29 06:01:59;;;;;;;104.75;48.58;;;15.10;99.90;;;;;;5093532;28;20038;-65
2023/05/29 06:04:34;;;;;;;89.00;45.42;;;15.00;99.90;;;;;;5075542;28;20020;-65
2023/05/29 06:07:00;;;;;;;90.45;44.28;;;15.20;99.90;;;;;;5093423;28;20315;-65
2023/05/29 06:09:27;;;;;;;84.20;42.40;;;15.40;99.90;;;;;;5093358;28;20052;-65
2023/05/29 06:11:55;;;;;;;86.85;45.70;;;15.40;99.90;;;;;;5093480;28;20024;-65
2023/05/29 06:14:23;;;;;;;96.38;46.63;;;15.40;99.90;;;;;;5093356;28;20385;-65
2023/05/29 06:16:49;;;;;;;94.80;47.17;;;15.50;99.90;;;;;;5092511;28;20036;-66
2023/05/29 06:19:14;;;;;;;99.10;47.38;;;15.60;99.90;;;;;;5080929;28;20047;-66
2023/05/29 06:22:00;;;;;;;108.20;52.30;;;15.60;99.90;;;;;;5091717;28;20190;-66
2023/05/29 06:24:28;;;;;;;106.68;52.22;;;15.50;99.90;;;;;;5093111;28;20036;-65
2023/05/29 06:26:56;;;;;;;118.32;52.90;;;15.70;99.90;;;;;;5093276;28;20056;-66
2023/05/29 06:29:22;;;;;;;102.72;48.47;;;15.80;99.90;;;;;;5093068;28;20032;-65
2023/05/29 06:31:51;;;;;;;102.97;49.20;;;16.00;99.90;;;;;;5092338;28;20024;-66
2023/05/29 06:34:18;;;;;;;92.47;45.47;;;15.90;99.90;;;;;;5066039;28;20056;-66
2023/05/29 06:36:44;;;;;;;98.78;48.70;;;16.00;99.90;;;;;;5055049;28;20273;-66
2023/05/29 06:39:11;;;;;;;99.82;48.80;;;16.10;99.90;;;;;;5073338;28;20067;-66
2023/05/29 06:41:37;;;;;;;97.68;45.13;;;16.20;99.90;;;;;;5073138;28;20028;-65
2023/05/29 06:44:03;;;;;;;95.55;48.00;;;16.30;99.90;;;;;;5073309;28;20457;-66
2023/05/29 06:46:30;;;;;;;96.28;47.05;;;16.50;99.90;;;;;;5073578;28;20103;-65
2023/05/29 06:48:56;;;;;;;98.57;45.58;;;16.60;99.90;;;;;;5073315;28;20123;-65
2023/05/29 06:51:23;;;;;;;125.35;56.15;;;16.70;99.90;;;;;;5073568;28;20020;-65
2023/05/29 06:53:55;;;;;;;109.53;50.38;;;16.80;99.90;;;;;;5074989;28;20336;-65
2023/05/29 06:56:22;;;;;;;100.85;48.53;;;16.90;99.90;;;;;;5073752;28;20028;-65
2023/05/29 06:58:48;;;;;;;108.10;49.90;;;17.20;99.90;;;;;;5075462;28;20086;-65
2023/05/29 07:01:16;;;;;;;124.30;54.13;;;17.30;99.90;;;;;;5076849;28;20078;-65
2023/05/29 07:03:55;;;;;;;120.78;53.00;;;17.50;99.90;;;;;;5076027;28;20043;-65
2023/05/29 07:06:21;;;;;;;103.32;50.58;;;17.70;99.90;;;;;;5076323;28;20455;-65
2023/05/29 07:08:47;;;;;;;89.72;45.97;;;18.00;99.90;;;;;;5077162;28;20053;-65
2023/05/29 07:11:12;;;;;;;70.07;38.83;;;18.40;99.90;;;;;;5074372;28;20024;-65
2023/05/29 07:13:39;;;;;;;63.92;36.75;;;18.70;99.90;;;;;;5075950;28;20197;-66
2023/05/29 07:16:05;;;;;;;57.22;34.03;;;19.00;99.90;;;;;;5075944;28;20036;-65
2023/05/29 07:18:34;;;;;;;60.90;34.10;;;19.10;99.90;;;;;;5077379;28;20060;-65
2023/05/29 07:21:01;;;;;;;52.50;30.27;;;19.40;99.90;;;;;;5076206;28;20024;-66
2023/05/29 07:23:28;;;;;;;68.80;34.03;;;19.30;99.90;;;;;;5076362;28;20033;-65
2023/05/29 07:25:54;;;;;;;56.63;34.00;;;19.20;99.90;;;;;;5069385;28;20073;-66
2023/05/29 07:28:23;;;;;;;52.58;32.75;;;19.90;99.90;;;;;;5076648;28;20027;-66
2023/05/29 07:30:49;;;;;;;49.45;30.08;;;20.40;99.90;;;;;;5074749;28;20035;-66
2023/05/29 07:33:15;;;;;;;51.92;30.88;;;20.70;99.90;;;;;;5084034;28;20076;-65
2023/05/29 07:35:41;;;;;;;46.92;27.27;;;20.90;99.90;;;;;;5096274;28;20570;-65
2023/05/29 07:38:09;;;;;;;43.60;26.00;;;21.00;99.90;;;;;;5095530;28;20039;-65
2023/05/29 07:40:37;;;;;;;41.60;24.23;;;21.10;99.90;;;;;;5079717;28;20381;-66
2023/05/29 07:43:06;;;;;;;38.30;25.40;;;21.10;99.90;;;;;;5076309;28;20124;-66
2023/05/29 07:46:02;;;;;;;40.08;26.50;;;21.10;99.90;;;;;;5075523;28;20098;-66
2023/05/29 07:48:29;;;;;;;39.17;23.67;;;21.20;99.90;;;;;;5075436;28;20024;-66
2023/05/29 07:50:56;;;;;;;42.58;25.35;;;21.00;99.90;;;;;;5074838;28;20111;-66
2023/05/29 07:53:23;;;;;;;37.38;24.65;;;21.20;99.90;;;;;;5071872;28;20030;-65
2023/05/29 07:55:50;;;;;;;44.15;26.08;;;21.10;99.90;;;;;;5072074;28;20039;-66
2023/05/29 07:58:16;;;;;;;41.90;24.27;;;21.00;99.90;;;;;;5075382;28;20039;-66
2023/05/29 08:00:44;;;;;;;36.60;21.00;;;20.90;99.90;;;;;;5087587;28;20119;-66
2023/05/29 08:03:11;;;;;;;27.90;19.63;;;21.50;99.90;;;;;;5078590;28;20027;-65
2023/05/29 08:05:56;;;;;;;29.55;19.73;;;21.60;99.90;;;;;;5085285;28;20039;-66
2023/05/29 08:08:22;;;;;;;33.03;19.45;;;21.80;99.90;;;;;;5063623;28;20042;-66
2023/05/29 08:10:50;;;;;;;31.45;18.98;;;22.00;99.90;;;;;;5093142;28;20028;-66
2023/05/29 08:13:16;;;;;;;37.03;20.23;;;22.40;99.70;;;;;;5097770;28;20102;-66
2023/05/29 08:15:44;;;;;;;25.80;15.70;;;21.90;99.90;;;;;;5095374;28;20046;-66
2023/05/29 08:18:10;;;;;;;29.00;18.20;;;22.50;98.30;;;;;;5097677;28;20583;-66
2023/05/29 08:20:36;;;;;;;32.55;19.98;;;23.00;98.60;;;;;;5097635;28;20061;-66
2023/05/29 08:23:04;;;;;;;31.00;16.95;;;23.40;96.60;;;;;;5070403;28;20475;-66
2023/05/29 08:25:30;;;;;;;27.25;17.67;;;22.70;96.00;;;;;;5056466;28;20063;-66
2023/05/29 08:27:57;;;;;;;15.68;11.45;;;23.00;96.70;;;;;;5054954;28;20029;-66
2023/05/29 08:30:23;;;;;;;18.02;12.45;;;23.30;93.30;;;;;;5055928;28;20466;-66
2023/05/29 08:32:50;;;;;;;18.10;13.48;;;23.20;93.00;;;;;;5064463;28;20036;-66
2023/05/29 08:35:16;;;;;;;24.80;14.30;;;23.50;92.10;;;;;;5096430;28;20508;-66
2023/05/29 08:37:42;;;;;;;18.88;12.88;;;23.70;92.40;;;;;;5108227;28;20416;-66
2023/05/29 08:40:08;;;;;;;18.35;14.10;;;23.70;95.70;;;;;;5116896;28;20027;-66
2023/05/29 08:42:39;;;;;;;20.35;13.68;;;23.80;98.20;;;;;;5115622;28;20077;-66
2023/05/29 08:45:09;;;;;;;22.38;15.00;;;23.90;92.70;;;;;;5116878;28;20059;-66
2023/05/29 08:47:37;;;;;;;21.48;14.75;;;23.60;92.50;;;;;;5115489;28;20024;-65
2023/05/29 08:50:03;;;;;;;18.73;13.27;;;23.80;91.00;;;;;;5116641;28;20027;-66
2023/05/29 08:52:35;;;;;;;22.77;16.70;;;23.70;90.70;;;;;;5115605;28;20100;-66
2023/05/29 08:55:02;;;;;;;18.95;14.05;;;23.70;91.70;;;;;;5115118;28;20035;-66
2023/05/29 08:57:31;;;;;;;20.38;14.50;;;24.10;90.60;;;;;;5116425;28;20479;-66
2023/05/29 08:59:58;;;;;;;24.15;15.63;;;24.40;90.90;;;;;;5116203;28;20377;-66
2023/05/29 09:02:24;;;;;;;21.55;14.90;;;24.70;91.00;;;;;;5116516;28;20023;-66
2023/05/29 09:04:52;;;;;;;24.67;16.75;;;24.90;87.30;;;;;;5116901;28;20621;-66
2023/05/29 09:07:19;;;;;;;19.80;12.20;;;25.00;86.70;;;;;;5117108;28;20015;-66
2023/05/29 09:09:46;;;;;;;20.98;15.00;;;24.90;83.20;;;;;;5113411;28;20046;-66
2023/05/29 09:12:12;;;;;;;25.50;17.45;;;23.80;88.70;;;;;;5108354;28;20383;-66
2023/05/29 09:14:41;;;;;;;25.30;16.50;;;24.50;90.40;;;;;;5110411;28;20084;-66
2023/05/29 09:17:08;;;;;;;25.58;16.85;;;24.80;89.40;;;;;;5115965;28;20031;-66
2023/05/29 09:19:40;;;;;;;26.38;15.65;;;25.00;90.00;;;;;;5116094;28;20038;-66
2023/05/29 09:22:08;;;;;;;20.90;14.88;;;25.00;87.50;;;;;;5114089;28;20594;-66
2023/05/29 09:24:36;;;;;;;22.83;15.15;;;25.10;84.40;;;;;;5113667;28;20464;-66
2023/05/29 09:27:04;;;;;;;19.13;13.63;;;25.50;91.10;;;;;;5115756;28;20080;-66
2023/05/29 09:29:37;;;;;;;19.83;13.55;;;25.40;86.40;;;;;;5111911;28;20061;-66
2023/05/29 09:32:08;;;;;;;19.20;13.82;;;25.40;82.10;;;;;;5115379;28;20024;-66
2023/05/29 09:34:35;;;;;;;18.27;14.52;;;25.70;82.50;;;;;;5106542;28;20046;-66
2023/05/29 09:37:08;;;;;;;20.80;13.52;;;25.90;82.60;;;;;;5096995;28;20032;-66
2023/05/29 09:39:54;;;;;;;18.60;14.40;;;25.50;81.50;;;;;;5102449;28;20059;-66
2023/05/29 09:42:20;;;;;;;18.75;13.07;;;25.80;81.20;;;;;;5111958;28;20087;-67
2023/05/29 09:44:53;;;;;;;17.77;12.43;;;25.70;78.10;;;;;;5113803;28;20473;-66
2023/05/29 09:47:19;;;;;;;21.70;13.18;;;26.10;81.50;;;;;;5113133;28;20024;-67
2023/05/29 09:49:46;;;;;;;20.33;13.20;;;26.70;81.30;;;;;;5114356;28;20020;-66
2023/05/29 09:52:15;;;;;;;19.25;11.25;;;27.20;77.50;;;;;;5112116;28;20034;-66
2023/05/29 09:54:46;;;;;;;14.43;10.53;;;27.10;74.60;;;;;;5108237;28;20533;-66
2023/05/29 09:57:16;;;;;;;19.20;13.13;;;27.50;70.90;;;;;;5104962;28;20504;-66
2023/05/29 09:59:51;;;;;;;14.82;11.85;;;28.00;71.70;;;;;;5110461;28;20114;-66
2023/05/29 10:02:17;;;;;;;13.63;10.75;;;28.40;70.70;;;;;;5114998;28;20023;-66
2023/05/29 10:04:44;;;;;;;17.85;11.75;;;28.20;74.10;;;;;;5108170;28;20066;-66
2023/05/29 10:07:20;;;;;;;12.82;10.65;;;28.50;70.70;;;;;;5112291;28;20568;-66
2023/05/29 10:09:50;;;;;;;17.80;11.65;;;28.40;66.40;;;;;;5114423;28;20400;-67
2023/05/29 10:12:20;;;;;;;15.98;11.10;;;28.10;69.30;;;;;;5114702;28;20500;-67
2023/05/29 10:14:50;;;;;;;13.00;9.95;;;27.00;67.10;;;;;;5112359;28;20042;-66
2023/05/29 10:17:23;;;;;;;15.43;11.18;;;26.80;69.60;;;;;;5105802;28;20043;-66
2023/05/29 10:19:52;;;;;;;15.35;10.70;;;26.80;70.50;;;;;;5105409;28;20024;-66
2023/05/29 10:22:21;;;;;;;12.35;10.60;;;27.40;72.30;;;;;;5107952;28;20031;-67
2023/05/29 10:24:49;;;;;;;15.32;10.95;;;27.60;72.60;;;;;;5114703;28;20031;-66
2023/05/29 10:27:15;;;;;;;15.00;11.32;;;27.80;70.20;;;;;;5114143;28;20378;-66
2023/05/29 10:30:11;;;;;;;12.30;10.20;;;27.50;69.70;;;;;;5113301;28;20473;-66
2023/05/29 10:33:00;;;;;;;20.98;12.40;;;27.60;65.40;;;;;;5090535;28;20039;-66
2023/05/29 10:35:38;;;;;;;18.10;11.18;;;27.20;69.50;;;;;;5106943;28;20370;-67
2023/05/29 10:38:13;;;;;;;16.85;8.30;;;26.30;73.00;;;;;;5114658;28;20080;-66
2023/05/29 10:40:39;;;;;;;16.65;7.78;;;25.70;74.70;;;;;;5115313;28;20474;-66
2023/05/29 10:43:09;;;;;;;10.65;7.20;;;25.20;79.60;;;;;;5112143;28;20451;-66
2023/05/29 10:45:38;;;;;;;9.45;7.30;;;24.60;79.10;;;;;;5113922;28;20388;-66
2023/05/29 10:48:06;;;;;;;8.52;7.53;;;24.20;84.90;;;;;;5105170;28;20020;-67
2023/05/29 10:50:50;;;;;;;12.45;6.63;;;24.10;84.80;;;;;;5081975;28;20051;-65
2023/05/29 10:53:30;;;;;;;14.05;6.22;;;24.00;79.40;;;;;;5094363;28;20100;-66
2023/05/29 10:55:58;;;;;;;6.90;5.57;;;23.30;77.80;;;;;;5094136;28;20461;-66
2023/05/29 10:58:27;;;;;;;9.05;6.28;;;23.30;80.20;;;;;;5094114;28;20362;-65
2023/05/29 11:00:55;;;;;;;9.98;6.20;;;22.50;88.20;;;;;;5093951;28;20039;-65
2023/05/29 11:03:23;;;;;;;20.73;9.23;;;22.10;94.50;;;;;;5105790;28;20032;-65
2023/05/29 11:06:01;;;;;;;14.95;8.63;;;22.50;99.90;;;;;;5106910;28;20103;-66
2023/05/29 11:08:56;;;;;;;12.77;8.68;;;22.40;99.90;;;;;;5114127;28;20027;-66
2023/05/29 11:11:28;;;;;;;13.43;7.65;;;22.10;99.90;;;;;;5103482;28;20058;-66
2023/05/29 11:14:01;;;;;;;12.85;8.23;;;22.10;99.90;;;;;;5112468;28;20536;-66
2023/05/29 11:16:29;;;;;;;18.83;9.88;;;22.20;99.90;;;;;;5102728;28;20036;-66
2023/05/29 11:18:57;;;;;;;16.90;10.70;;;22.30;99.90;;;;;;5093922;28;20485;-66
2023/05/29 11:21:44;;;;;;;17.27;10.07;;;22.50;99.90;;;;;;5095926;28;20412;-66
2023/05/29 11:24:24;;;;;;;21.30;10.65;;;22.20;99.90;;;;;;5113919;28;20393;-66
2023/05/29 11:26:56;;;;;;;14.88;8.77;;;22.60;99.90;;;;;;5114862;28;20445;-67
2023/05/29 11:29:24;;;;;;;13.05;8.30;;;22.40;99.90;;;;;;5114999;28;20031;-67
2023/05/29 11:31:58;;;;;;;15.05;10.02;;;22.20;99.90;;;;;;5114203;28;20031;-67
2023/05/29 11:34:27;;;;;;;12.80;9.00;;;22.20;99.90;;;;;;5099470;28;20060;-67
2023/05/29 11:36:54;;;;;;;11.23;8.95;;;21.90;99.90;;;;;;5108352;28;20027;-68
2023/05/29 11:39:20;;;;;;;14.20;9.77;;;22.30;99.90;;;;;;5096720;28;20435;-68
2023/05/29 11:41:51;;;;;;;10.63;8.70;;;22.50;99.90;;;;;;5097767;28;20128;-68
2023/05/29 11:44:17;;;;;;;17.08;9.63;;;23.10;99.90;;;;;;5112765;28;20019;-68
2023/05/29 11:46:43;;;;;;;11.75;8.65;;;23.30;99.90;;;;;;5115024;28;20479;-68
2023/05/29 11:49:09;;;;;;;11.73;8.68;;;22.80;99.90;;;;;;5113138;28;20011;-68
2023/05/29 11:51:36;;;;;;;9.88;8.10;;;22.90;99.90;;;;;;5112815;28;20020;-68
2023/05/29 11:54:02;;;;;;;10.23;8.15;;;23.30;99.90;;;;;;5117650;28;20063;-68
2023/05/29 11:56:30;;;;;;;13.07;8.45;;;23.20;99.90;;;;;;5113217;28;20023;-68
2023/05/29 11:58:59;;;;;;;11.70;8.65;;;23.60;99.90;;;;;;5114402;28;20023;-69
2023/05/29 12:01:29;;;;;;;16.00;8.73;;;23.00;99.90;;;;;;5106599;28;20028;-69
2023/05/29 12:03:55;;;;;;;15.90;8.85;;;23.20;99.90;;;;;;5092242;28;20038;-69
2023/05/29 12:06:32;;;;;;;12.77;8.70;;;23.40;99.90;;;;;;5117564;28;20035;-68
2023/05/29 12:08:58;;;;;;;17.95;9.80;;;23.70;99.90;;;;;;5112467;28;20218;-68
2023/05/29 12:11:24;;;;;;;16.23;7.97;;;23.60;99.90;;;;;;5116676;28;20031;-69
2023/05/29 12:13:59;;;;;;;17.55;9.05;;;23.70;99.90;;;;;;5115385;28;20031;-68
2023/05/29 12:16:27;;;;;;;10.40;8.43;;;24.40;99.90;;;;;;5116500;28;20024;-69
2023/05/29 12:18:54;;;;;;;9.25;8.30;;;24.70;99.40;;;;;;5117255;28;20475;-68
2023/05/29 12:21:22;;;;;;;8.20;7.32;;;24.60;98.60;;;;;;5112286;28;20024;-68
2023/05/29 12:23:48;;;;;;;10.63;9.23;;;24.20;97.20;;;;;;5114437;28;20032;-68
2023/05/29 12:26:15;;;;;;;11.23;8.90;;;24.10;99.90;;;;;;5116248;28;20687;-68
2023/05/29 12:28:45;;;;;;;12.32;9.63;;;24.30;99.90;;;;;;5111137;28;20034;-68
2023/05/29 12:31:11;;;;;;;;;;;24.60;99.90;;;;;;5116662;28;20051;-69
2023/05/29 12:34:01;;;;;;;16.05;10.48;;;24.60;99.90;;;;;;5110758;28;19958;-69
2023/05/29 12:36:33;;;;;;;12.45;9.48;;;24.40;99.90;;;;;;5108215;28;20387;-69